Time;durP1;ratioP1;P1;durP2;ratioP2;P2;SDS_P1;SDS_P2;PMS_P1;PMS_P2;Temp;Humidity;BMP_temperature;BMP_pressure;BME280_temperature;BME280_humidity;BME280_pressure;Samples;Min_cycle;Max_cycle;Signal;HPM_P1;HPM_P2
2023/03/01 00:02:04;;;;;;;77.10;12.43;;;0.00;59.50;;;;;;5059479;28;20197;-83
2023/03/01 00:04:30;;;;;;;74.90;13.10;;;0.00;61.00;;;;;;5059551;28;20153;-83
2023/03/01 00:06:56;;;;;;;74.72;13.45;;;0.00;59.90;;;;;;5058689;28;20189;-84
2023/03/01 00:09:22;;;;;;;76.57;13.93;;;0.00;61.10;;;;;;5059273;28;20172;-84
2023/03/01 00:11:48;;;;;;;73.40;12.73;;;-0.10;59.30;;;;;;5058155;28;20552;-83
2023/03/01 00:14:16;;;;;;;74.77;13.67;;;-0.10;59.90;;;;;;5058569;28;20398;-84
2023/03/01 00:16:42;;;;;;;76.40;13.38;;;-0.10;58.00;;;;;;5058861;28;20184;-83
2023/03/01 00:19:13;;;;;;;73.15;12.98;;;-0.10;60.70;;;;;;5061169;28;20251;-83
2023/03/01 00:21:39;;;;;;;77.95;14.85;;;-0.10;61.00;;;;;;5061192;28;20204;-84
2023/03/01 00:24:06;;;;;;;74.70;12.70;;;-0.10;59.10;;;;;;5060873;28;20187;-85
2023/03/01 00:26:32;;;;;;;75.00;12.57;;;-0.10;56.60;;;;;;5061038;28;20161;-82
2023/03/01 00:28:58;;;;;;;75.60;12.83;;;-0.20;57.50;;;;;;5059066;28;20163;-83
2023/03/01 00:31:29;;;;;;;76.95;13.80;;;-0.20;63.00;;;;;;5058086;28;20423;-83
2023/03/01 00:33:57;;;;;;;79.45;14.32;;;-0.30;63.80;;;;;;5057800;28;20566;-82
2023/03/01 00:36:24;;;;;;;78.10;14.20;;;-0.30;65.00;;;;;;5057812;28;20524;-84
2023/03/01 00:38:53;;;;;;;77.78;13.95;;;-0.40;66.10;;;;;;5059052;28;20214;-82
2023/03/01 00:41:20;;;;;;;78.32;13.85;;;-0.40;62.60;;;;;;5059000;28;20208;-83
2023/03/01 00:43:46;;;;;;;77.47;14.38;;;-0.40;64.40;;;;;;5057501;28;20172;-83
2023/03/01 00:46:18;;;;;;;79.23;14.77;;;-0.50;67.90;;;;;;5057371;28;20164;-84
2023/03/01 00:48:45;;;;;;;81.57;16.30;;;-0.40;69.00;;;;;;5057461;28;20794;-84
2023/03/01 00:51:16;;;;;;;79.95;15.48;;;-0.50;71.10;;;;;;5057023;28;20180;-84
2023/03/01 00:53:42;;;;;;;76.05;13.85;;;-0.50;69.50;;;;;;5057713;28;20176;-83
2023/03/01 00:56:10;;;;;;;80.00;16.05;;;-0.50;74.50;;;;;;5057902;28;20203;-82
2023/03/01 00:58:39;;;;;;;76.68;16.08;;;-0.60;76.50;;;;;;5057333;28;20644;-83
2023/03/01 01:01:16;;;;;;;77.78;16.40;;;-0.60;80.30;;;;;;5058602;28;20196;-84
2023/03/01 01:03:47;;;;;;;77.13;19.20;;;-0.60;88.50;;;;;;5057904;28;20255;-82
2023/03/01 01:06:14;;;;;;;77.93;17.67;;;-0.60;87.40;;;;;;5058629;28;20179;-82
2023/03/01 01:08:40;;;;;;;84.07;17.45;;;-0.70;86.00;;;;;;5058335;28;20717;-83
2023/03/01 01:11:08;;;;;;;81.90;18.07;;;-0.70;86.20;;;;;;5057822;28;20173;-82
2023/03/01 01:13:34;;;;;;;76.85;16.15;;;-0.70;88.30;;;;;;5058442;28;20168;-83
2023/03/01 01:16:02;;;;;;;75.57;13.60;;;-0.70;88.30;;;;;;5058483;28;20713;-84
2023/03/01 01:18:28;;;;;;;76.78;16.00;;;-0.70;82.80;;;;;;5057207;28;20271;-83
2023/03/01 01:20:57;;;;;;;76.40;14.20;;;-0.80;83.70;;;;;;5058803;28;20249;-83
2023/03/01 01:23:22;;;;;;;78.35;16.75;;;-0.70;83.00;;;;;;5058575;28;20607;-83
2023/03/01 01:25:48;;;;;;;79.57;17.70;;;-0.80;84.10;;;;;;5059057;28;20171;-84
2023/03/01 01:28:14;;;;;;;79.10;18.20;;;-0.80;83.10;;;;;;5058601;28;20539;-84
2023/03/01 01:30:39;;;;;;;80.90;16.10;;;-0.90;83.20;;;;;;5057808;28;20181;-84
2023/03/01 01:33:05;;;;;;;81.27;14.77;;;-0.90;85.50;;;;;;5058742;28;20196;-84
2023/03/01 01:35:30;;;;;;;93.13;19.80;;;-0.90;87.70;;;;;;5058366;28;20255;-83
2023/03/01 01:37:56;;;;;;;78.63;19.57;;;-0.90;88.20;;;;;;5058905;28;20256;-83
2023/03/01 01:40:22;;;;;;;77.80;16.00;;;-1.00;90.30;;;;;;5058363;28;20172;-85
2023/03/01 01:42:47;;;;;;;79.80;19.30;;;-1.00;88.90;;;;;;5057015;28;20208;-84
2023/03/01 01:45:33;;;;;;;80.20;23.10;;;-1.00;90.20;;;;;;5058525;28;20165;-84
2023/03/01 01:48:05;;;;;;;76.90;17.80;;;-1.00;90.70;;;;;;5057041;28;20192;-84
2023/03/01 01:50:37;;;;;;;77.88;19.38;;;-1.00;83.90;;;;;;5057374;28;20540;-83
2023/03/01 01:53:06;;;;;;;77.40;17.50;;;-1.10;83.70;;;;;;5057664;28;20192;-83
2023/03/01 01:55:32;;;;;;;78.35;19.48;;;-1.10;88.00;;;;;;5058611;28;20230;-84
2023/03/01 01:58:05;;;;;;;77.00;18.73;;;-1.10;87.90;;;;;;5061448;28;20164;-85
2023/03/01 02:00:31;;;;;;;76.00;18.75;;;-1.10;88.20;;;;;;5061437;28;20747;-85
2023/03/01 02:03:01;;;;;;;77.37;18.63;;;-1.10;86.80;;;;;;5059365;28;20196;-84
2023/03/01 02:05:38;;;;;;;75.57;16.75;;;-1.10;87.60;;;;;;5059681;28;20410;-84
2023/03/01 02:08:05;;;;;;;77.95;15.60;;;-1.20;89.80;;;;;;5060671;28;20152;-84
2023/03/01 02:10:34;;;;;;;81.45;18.63;;;-1.20;90.40;;;;;;5060001;28;20168;-83
2023/03/01 02:13:00;;;;;;;78.35;20.90;;;-1.20;88.80;;;;;;5059885;28;20703;-84
2023/03/01 02:15:26;;;;;;;76.03;19.00;;;-1.20;90.40;;;;;;5058619;28;20172;-84
2023/03/01 02:17:54;;;;;;;78.87;19.70;;;-1.30;90.70;;;;;;5058507;28;20177;-83
2023/03/01 02:20:45;;;;;;;78.55;21.13;;;-1.20;92.40;;;;;;5057216;28;20415;-85
2023/03/01 02:23:11;;;;;;;76.65;20.30;;;-1.30;85.90;;;;;;5055939;28;20241;-83
2023/03/01 02:26:01;;;;;;;78.83;19.90;;;-1.30;90.10;;;;;;5056407;28;20169;-83
2023/03/01 02:28:33;;;;;;;79.40;21.83;;;-1.30;92.10;;;;;;5057021;28;20376;-83
2023/03/01 02:33:47;;;;;;;86.75;20.25;;;-1.30;85.60;;;;;;5062662;28;20233;-84
2023/03/01 02:36:21;;;;;;;74.28;20.25;;;-1.30;90.10;;;;;;5044601;28;20168;-84
2023/03/01 02:38:49;;;;;;;80.95;19.70;;;-1.30;91.20;;;;;;5059320;28;20165;-82
2023/03/01 02:41:17;;;;;;;76.22;18.17;;;-1.40;91.60;;;;;;5058701;28;20192;-82
2023/03/01 02:43:43;;;;;;;80.90;20.10;;;-1.40;91.40;;;;;;5057799;28;20259;-83
2023/03/01 02:46:15;;;;;;;75.40;18.37;;;-1.40;91.50;;;;;;5059895;28;20246;-83
2023/03/01 02:48:44;;;;;;;78.03;18.98;;;-1.40;90.30;;;;;;5057877;28;20488;-84
2023/03/01 02:51:22;;;;;;;77.13;20.13;;;-1.50;88.60;;;;;;5059236;28;20171;-82
2023/03/01 02:53:59;;;;;;;77.50;19.90;;;-1.50;92.30;;;;;;5059435;28;20250;-84
2023/03/01 02:56:25;;;;;;;77.28;22.15;;;-1.40;94.50;;;;;;5058124;28;20168;-83
2023/03/01 02:58:52;;;;;;;81.05;22.40;;;-1.40;94.60;;;;;;5059644;28;20635;-84
2023/03/01 03:01:19;;;;;;;79.25;24.02;;;-1.40;95.00;;;;;;5059670;28;20184;-84
2023/03/01 03:03:45;;;;;;;79.13;23.88;;;-1.50;94.10;;;;;;5059526;28;20224;-84
2023/03/01 03:06:11;;;;;;;80.13;22.17;;;-1.50;95.40;;;;;;5059745;28;20192;-84
2023/03/01 03:08:36;;;;;;;77.57;20.00;;;-1.50;94.10;;;;;;5059896;28;20391;-83
2023/03/01 03:11:02;;;;;;;83.73;22.00;;;-1.60;94.50;;;;;;5058314;28;20168;-84
2023/03/01 03:13:28;;;;;;;78.07;21.87;;;-1.60;93.90;;;;;;5058491;28;20338;-84
2023/03/01 03:16:03;;;;;;;78.00;25.20;;;-1.60;93.80;;;;;;5058628;28;20183;-85
2023/03/01 03:18:29;;;;;;;81.40;25.92;;;-1.60;93.90;;;;;;5060100;28;20235;-83
2023/03/01 03:21:02;;;;;;;80.00;27.07;;;-1.70;95.90;;;;;;5059464;28;20588;-84
2023/03/01 03:23:29;;;;;;;81.10;27.27;;;-1.70;95.80;;;;;;5059097;28;20419;-83
2023/03/01 03:25:54;;;;;;;81.75;28.63;;;-1.80;95.90;;;;;;5059827;28;20161;-84
2023/03/01 03:28:20;;;;;;;79.10;25.37;;;-1.90;98.60;;;;;;5059381;28;20164;-84
2023/03/01 03:30:46;;;;;;;78.07;26.37;;;-1.80;99.90;;;;;;5060458;28;20219;-84
2023/03/01 03:33:13;;;;;;;82.38;27.60;;;-1.80;98.50;;;;;;5059812;28;20189;-84
2023/03/01 03:35:45;;;;;;;78.95;26.92;;;-1.90;99.30;;;;;;5058028;28;20259;-84
2023/03/01 03:38:16;;;;;;;85.03;26.73;;;-1.90;99.90;;;;;;5060349;28;20501;-84
2023/03/01 03:40:51;;;;;;;81.68;26.05;;;-1.90;99.60;;;;;;5059460;28;20168;-84
2023/03/01 03:43:22;;;;;;;78.63;23.38;;;-1.90;99.90;;;;;;5059729;28;20277;-84
2023/03/01 03:45:50;;;;;;;79.03;23.90;;;-1.90;99.90;;;;;;5059140;28;20165;-84
2023/03/01 03:48:17;;;;;;;76.70;23.05;;;-2.00;99.90;;;;;;5058900;28;20535;-84
2023/03/01 03:50:51;;;;;;;80.18;23.02;;;-2.00;99.90;;;;;;5060573;28;20524;-84
2023/03/01 03:53:19;;;;;;;78.35;23.70;;;-2.00;99.90;;;;;;5059956;28;20187;-84
2023/03/01 03:55:53;;;;;;;78.07;22.50;;;-2.00;99.90;;;;;;5058736;28;20228;-84
2023/03/01 03:58:21;;;;;;;79.88;22.80;;;-2.10;99.20;;;;;;5059036;28;20175;-84
2023/03/01 04:00:50;;;;;;;83.85;23.77;;;-2.10;98.60;;;;;;5060375;28;20169;-84
2023/03/01 04:03:21;;;;;;;77.43;24.95;;;-2.10;95.80;;;;;;5060101;28;20180;-83
2023/03/01 04:05:47;;;;;;;79.30;24.67;;;-2.10;97.20;;;;;;5058824;28;20161;-83
2023/03/01 04:08:14;;;;;;;78.25;24.13;;;-2.10;98.10;;;;;;5060303;28;20218;-83
2023/03/01 04:10:45;;;;;;;78.15;20.50;;;-2.10;98.80;;;;;;5059340;28;20184;-83
2023/03/01 04:13:13;;;;;;;78.30;22.98;;;-2.20;97.90;;;;;;5059452;28;20199;-82
2023/03/01 04:15:40;;;;;;;84.03;25.33;;;-2.20;98.10;;;;;;5059776;28;20165;-83
2023/03/01 04:18:06;;;;;;;80.32;25.60;;;-2.20;98.70;;;;;;5060817;28;20168;-83
2023/03/01 04:20:34;;;;;;;81.95;24.65;;;-2.10;98.20;;;;;;5060223;28;20176;-84
2023/03/01 04:23:15;;;;;;;81.55;25.27;;;-2.10;96.60;;;;;;5060393;28;20291;-83
2023/03/01 04:25:45;;;;;;;79.57;23.75;;;-2.10;97.60;;;;;;5059408;28;20175;-83
2023/03/01 04:28:11;;;;;;;79.90;26.35;;;-2.20;98.00;;;;;;5060155;28;20151;-84
2023/03/01 04:30:38;;;;;;;76.70;25.97;;;-2.30;98.80;;;;;;5060061;28;20208;-84
2023/03/01 04:33:06;;;;;;;78.00;24.33;;;-2.20;99.90;;;;;;5060107;28;20185;-83
2023/03/01 04:35:32;;;;;;;78.15;23.63;;;-2.30;99.30;;;;;;5059278;28;20260;-84
2023/03/01 04:37:58;;;;;;;79.68;23.90;;;-2.30;99.70;;;;;;5060030;28;20165;-84
2023/03/01 04:40:24;;;;;;;78.40;24.35;;;-2.20;99.90;;;;;;5060790;28;20668;-83
2023/03/01 04:42:51;;;;;;;77.63;23.02;;;-2.30;96.90;;;;;;5060575;28;20208;-84
2023/03/01 04:45:16;;;;;;;76.95;26.08;;;-2.40;97.70;;;;;;5060241;28;20164;-83
2023/03/01 04:47:44;;;;;;;84.20;25.80;;;-2.40;98.00;;;;;;5060515;28;20161;-84
2023/03/01 04:50:12;;;;;;;79.50;22.95;;;-2.50;99.20;;;;;;5058288;28;20169;-84
2023/03/01 04:52:37;;;;;;;81.35;23.00;;;-2.50;99.90;;;;;;5058833;28;20703;-82
2023/03/01 04:55:04;;;;;;;79.90;23.97;;;-2.60;99.90;;;;;;5058915;28;20196;-83
2023/03/01 04:57:30;;;;;;;81.45;24.45;;;-2.60;99.40;;;;;;5058889;28;20891;-83
2023/03/01 04:59:56;;;;;;;79.88;24.77;;;-2.60;98.70;;;;;;5057026;28;20172;-83
2023/03/01 05:02:21;;;;;;;76.83;24.97;;;-2.60;99.90;;;;;;5058551;28;20209;-83
2023/03/01 05:04:50;;;;;;;80.80;21.07;;;-2.60;99.90;;;;;;5057559;28;20184;-83
2023/03/01 05:07:19;;;;;;;78.15;22.65;;;-2.60;99.90;;;;;;5061354;28;20172;-83
2023/03/01 05:09:46;;;;;;;78.80;19.75;;;-2.60;99.90;;;;;;5061975;28;20165;-84
2023/03/01 05:12:12;;;;;;;80.28;21.90;;;-2.50;99.90;;;;;;5062873;28;20219;-84
2023/03/01 05:14:38;;;;;;;77.93;21.42;;;-2.50;99.90;;;;;;5060896;28;20175;-83
2023/03/01 05:17:04;;;;;;;75.33;22.30;;;-2.60;99.30;;;;;;5061632;28;20251;-83
2023/03/01 05:19:31;;;;;;;78.40;21.48;;;-2.60;99.90;;;;;;5061990;28;20415;-84
2023/03/01 05:22:06;;;;;;;79.38;22.17;;;-2.60;99.90;;;;;;5062774;28;20703;-83
2023/03/01 05:24:34;;;;;;;78.00;21.63;;;-2.60;99.90;;;;;;5062973;28;20160;-83
2023/03/01 05:27:01;;;;;;;78.80;22.90;;;-2.60;99.20;;;;;;5061479;28;20168;-84
2023/03/01 05:32:02;;;;;;;82.50;24.17;;;-2.70;99.90;;;;;;5070096;28;20235;-85
2023/03/01 05:34:35;;;;;;;80.63;20.55;;;-2.70;99.80;;;;;;5071398;28;20183;-85
2023/03/01 05:37:02;;;;;;;79.15;20.65;;;-2.80;99.90;;;;;;5071419;28;20152;-85
2023/03/01 05:39:29;;;;;;;79.32;26.35;;;-2.70;99.90;;;;;;5070820;28;20157;-85
2023/03/01 05:42:00;;;;;;;82.97;25.50;;;-2.80;99.20;;;;;;5069812;28;20204;-85
2023/03/01 05:44:28;;;;;;;79.22;25.83;;;-2.80;99.90;;;;;;5070174;28;20203;-85
2023/03/01 05:46:54;;;;;;;88.45;30.08;;;-2.80;99.90;;;;;;5070451;28;20168;-85
2023/03/01 05:49:23;;;;;;;82.03;26.45;;;-2.80;99.90;;;;;;5070264;28;20216;-85
2023/03/01 05:51:51;;;;;;;83.40;26.38;;;-2.80;99.80;;;;;;5069230;28;20196;-85
2023/03/01 05:54:18;;;;;;;80.65;23.95;;;-2.90;99.30;;;;;;5069593;28;20196;-85
2023/03/01 05:56:44;;;;;;;82.47;25.58;;;-2.80;99.90;;;;;;5070475;28;20228;-85
2023/03/01 05:59:11;;;;;;;83.55;25.67;;;-2.90;99.90;;;;;;5070405;28;20180;-85
2023/03/01 06:01:37;;;;;;;78.65;25.55;;;-2.90;99.90;;;;;;5070318;28;20260;-85
2023/03/01 06:04:04;;;;;;;80.97;27.75;;;-3.00;99.90;;;;;;5071120;28;20165;-85
2023/03/01 06:06:33;;;;;;;77.10;25.13;;;-3.00;99.90;;;;;;5068916;28;20164;-85
2023/03/01 06:08:59;;;;;;;80.57;26.73;;;-3.00;99.70;;;;;;5070251;28;20165;-85
2023/03/01 06:11:24;;;;;;;79.83;24.07;;;-3.10;99.30;;;;;;5069486;28;20179;-85
2023/03/01 06:13:50;;;;;;;82.30;26.80;;;-3.10;99.90;;;;;;5070060;28;20180;-85
2023/03/01 06:16:16;;;;;;;82.13;25.37;;;-3.10;99.90;;;;;;5069541;28;20190;-85
2023/03/01 06:18:42;;;;;;;81.47;28.10;;;-3.10;99.90;;;;;;5069809;28;20168;-85
2023/03/01 06:21:09;;;;;;;84.30;27.87;;;-3.10;99.90;;;;;;5070227;28;20242;-85
2023/03/01 06:23:35;;;;;;;80.20;23.77;;;-3.10;99.90;;;;;;5069186;28;20430;-85
2023/03/01 06:26:05;;;;;;;83.45;27.90;;;-3.00;99.90;;;;;;5069532;28;20167;-85
2023/03/01 06:28:31;;;;;;;84.50;29.63;;;-3.00;99.90;;;;;;5068396;28;20216;-85
2023/03/01 06:30:57;;;;;;;81.70;24.93;;;-3.00;99.90;;;;;;5070186;28;20207;-85
2023/03/01 06:33:24;;;;;;;81.50;22.00;;;-3.00;99.90;;;;;;5069397;28;20189;-85
2023/03/01 06:35:50;;;;;;;83.40;27.65;;;-3.00;99.90;;;;;;5069191;28;20430;-85
2023/03/01 06:38:18;;;;;;;82.97;26.25;;;-3.10;99.90;;;;;;5069526;28;20171;-85
2023/03/01 06:40:44;;;;;;;82.28;25.25;;;-3.00;99.90;;;;;;5066264;28;20160;-85
2023/03/01 06:43:09;;;;;;;79.88;23.13;;;-3.00;99.90;;;;;;5064467;28;20203;-84
2023/03/01 06:45:37;;;;;;;81.40;23.97;;;-3.00;99.90;;;;;;5064758;28;20177;-84
2023/03/01 06:48:07;;;;;;;81.88;24.98;;;-3.00;99.90;;;;;;5064897;28;20588;-84
2023/03/01 06:50:34;;;;;;;83.40;27.35;;;-3.00;99.90;;;;;;5065332;28;20167;-84
2023/03/01 06:53:00;;;;;;;80.93;24.90;;;-2.90;99.90;;;;;;5064502;28;20195;-84
2023/03/01 06:55:26;;;;;;;84.60;26.03;;;-2.90;99.90;;;;;;5063978;28;20164;-84
2023/03/01 06:57:59;;;;;;;83.82;22.20;;;-2.90;99.90;;;;;;5065068;28;20932;-85
2023/03/01 07:00:26;;;;;;;84.13;26.17;;;-2.80;99.90;;;;;;5066917;28;20512;-84
2023/03/01 07:02:52;;;;;;;87.38;30.13;;;-2.80;99.90;;;;;;5064919;28;20196;-84
2023/03/01 07:05:18;;;;;;;85.47;28.10;;;-2.80;99.90;;;;;;5064817;28;20175;-84
2023/03/01 07:07:43;;;;;;;81.03;22.90;;;-2.70;99.90;;;;;;5063454;28;20200;-84
2023/03/01 07:10:10;;;;;;;79.80;26.30;;;-2.60;99.90;;;;;;5065134;28;20279;-84
2023/03/01 07:12:36;;;;;;;86.35;25.63;;;-2.60;99.90;;;;;;5065829;28;20260;-84
2023/03/01 07:15:03;;;;;;;82.40;29.33;;;-2.50;99.90;;;;;;5064806;28;20172;-84
2023/03/01 07:17:28;;;;;;;82.70;28.48;;;-2.40;99.90;;;;;;5065113;28;20175;-84
2023/03/01 07:19:54;;;;;;;88.90;27.63;;;-2.40;99.90;;;;;;5064665;28;20202;-84
2023/03/01 07:22:20;;;;;;;86.07;27.60;;;-2.30;99.90;;;;;;5065063;28;20480;-84
2023/03/01 07:24:46;;;;;;;86.90;28.90;;;-2.30;99.90;;;;;;5065649;28;20168;-84
2023/03/01 07:27:11;;;;;;;90.20;26.80;;;-2.20;99.90;;;;;;5066042;28;20172;-84
2023/03/01 07:29:37;;;;;;;84.27;34.07;;;-2.20;99.90;;;;;;5065209;28;20228;-85
2023/03/01 07:32:04;;;;;;;87.80;27.93;;;-2.10;99.90;;;;;;5065551;28;20543;-84
2023/03/01 07:34:30;;;;;;;87.63;34.08;;;-2.00;99.90;;;;;;5065514;28;20403;-84
2023/03/01 07:36:56;;;;;;;82.20;24.60;;;-1.80;99.90;;;;;;5066154;28;20172;-84
2023/03/01 07:39:22;;;;;;;86.10;30.17;;;-1.70;99.90;;;;;;5066079;28;20168;-84
2023/03/01 07:41:49;;;;;;;85.40;28.38;;;-1.60;99.90;;;;;;5067301;28;20451;-84
2023/03/01 07:44:16;;;;;;;84.95;29.08;;;-1.50;99.90;;;;;;5066484;28;20168;-84
2023/03/01 07:46:42;;;;;;;85.75;29.40;;;-1.40;99.90;;;;;;5066810;28;20156;-84
2023/03/01 07:49:08;;;;;;;84.60;32.90;;;-1.40;99.90;;;;;;5066668;28;20172;-84
2023/03/01 07:51:34;;;;;;;86.68;31.08;;;-1.30;99.90;;;;;;5067894;28;20445;-83
2023/03/01 07:54:00;;;;;;;88.87;30.53;;;-1.30;99.90;;;;;;5067653;28;20171;-83
2023/03/01 07:56:26;;;;;;;88.17;33.53;;;-1.20;99.90;;;;;;5067298;28;20172;-84
2023/03/01 07:58:51;;;;;;;86.40;32.17;;;-1.20;99.90;;;;;;5068069;28;20446;-83
2023/03/01 08:01:19;;;;;;;88.10;30.10;;;-1.10;99.90;;;;;;5068100;28;20924;-83
2023/03/01 08:03:45;;;;;;;87.68;28.10;;;-1.10;99.90;;;;;;5066643;28;20187;-84
2023/03/01 08:06:13;;;;;;;83.80;25.00;;;-0.90;99.90;;;;;;5068732;28;20151;-84
2023/03/01 08:08:39;;;;;;;85.75;27.67;;;-0.90;99.90;;;;;;5069094;28;20160;-84
2023/03/01 08:11:06;;;;;;;87.87;28.00;;;-0.90;99.90;;;;;;5067747;28;20640;-84
2023/03/01 08:13:33;;;;;;;92.22;32.13;;;-0.90;99.90;;;;;;5068633;28;20446;-83
2023/03/01 08:16:03;;;;;;;84.57;28.50;;;-0.90;99.90;;;;;;5067305;28;20192;-83
2023/03/01 08:18:29;;;;;;;88.28;28.95;;;-0.80;99.90;;;;;;5069350;28;20202;-83
2023/03/01 08:20:55;;;;;;;84.80;25.70;;;-0.70;99.90;;;;;;5068446;28;20267;-83
2023/03/01 08:23:21;;;;;;;85.17;27.10;;;-0.60;99.90;;;;;;5068800;28;20188;-83
2023/03/01 08:25:46;;;;;;;88.83;25.67;;;-0.60;99.90;;;;;;5069050;28;20172;-83
2023/03/01 08:28:12;;;;;;;86.97;28.20;;;-0.50;97.00;;;;;;5070002;28;20402;-83
2023/03/01 08:30:38;;;;;;;86.20;28.00;;;-0.40;93.40;;;;;;5068865;28;20315;-83
2023/03/01 08:33:04;;;;;;;84.37;27.20;;;-0.40;94.30;;;;;;5070163;28;20208;-83
2023/03/01 08:35:29;;;;;;;84.87;26.40;;;-0.30;94.20;;;;;;5069530;28;20399;-83
2023/03/01 08:37:55;;;;;;;86.83;30.77;;;-0.30;92.70;;;;;;5070136;28;20403;-83
2023/03/01 08:40:21;;;;;;;89.37;31.80;;;-0.20;90.50;;;;;;5071235;28;20409;-83
2023/03/01 08:42:46;;;;;;;96.63;34.10;;;0.00;66.40;;;;;;5073105;28;20255;-83
2023/03/01 08:45:14;;;;;;;89.30;28.00;;;0.10;48.40;;;;;;5072577;28;20173;-83
2023/03/01 08:47:39;;;;;;;85.30;23.48;;;0.20;38.90;;;;;;5072233;28;20422;-83
2023/03/01 08:50:05;;;;;;;84.10;20.20;;;0.30;39.80;;;;;;5073712;28;20228;-83
2023/03/01 08:52:33;;;;;;;80.93;18.00;;;0.40;30.90;;;;;;5072685;28;20196;-83
2023/03/01 08:55:01;;;;;;;82.55;14.23;;;0.50;29.50;;;;;;5073862;28;20232;-83
2023/03/01 08:57:27;;;;;;;83.75;16.40;;;0.50;29.30;;;;;;5072959;28;20167;-84
2023/03/01 08:59:55;;;;;;;82.73;17.27;;;0.70;21.60;;;;;;5073396;28;20168;-84
2023/03/01 09:02:21;;;;;;;82.28;14.95;;;0.70;20.90;;;;;;5073405;28;20449;-83
2023/03/01 09:04:47;;;;;;;81.87;16.47;;;0.70;19.40;;;;;;5073061;28;20220;-84
2023/03/01 09:07:13;;;;;;;85.15;15.80;;;0.90;13.60;;;;;;5072717;28;20220;-84
2023/03/01 09:09:38;;;;;;;81.13;16.00;;;1.00;11.10;;;;;;5072101;28;20538;-84
2023/03/01 09:12:05;;;;;;;81.53;15.20;;;1.10;7.00;;;;;;5071603;28;20222;-84
2023/03/01 09:14:38;;;;;;;84.75;15.70;;;1.10;4.30;;;;;;5072413;28;20164;-84
2023/03/01 09:17:04;;;;;;;79.35;15.40;;;1.30;1.00;;;;;;5073688;28;20179;-84
2023/03/01 09:19:33;;;;;;;81.18;14.82;;;1.50;1.00;;;;;;5071323;28;20165;-84
2023/03/01 09:21:59;;;;;;;82.18;15.75;;;1.50;1.00;;;;;;5068539;28;20231;-84
2023/03/01 09:24:25;;;;;;;86.57;15.10;;;1.50;1.00;;;;;;5070338;28;20168;-84
2023/03/01 09:26:53;;;;;;;81.13;14.85;;;1.60;1.00;;;;;;5070672;28;20175;-84
2023/03/01 09:29:19;;;;;;;83.55;17.00;;;1.70;1.00;;;;;;5071498;28;20196;-84
2023/03/01 09:31:45;;;;;;;80.93;14.17;;;1.80;1.00;;;;;;5069669;28;20207;-84
2023/03/01 09:34:10;;;;;;;78.10;14.27;;;1.90;1.00;;;;;;5067342;28;20199;-84
2023/03/01 09:36:36;;;;;;;80.50;14.07;;;2.10;1.00;;;;;;5071991;28;20410;-84
2023/03/01 09:39:05;;;;;;;79.33;14.37;;;2.20;1.00;;;;;;5069059;28;20194;-84
2023/03/01 09:42:02;;;;;;;84.32;14.35;;;2.20;1.00;;;;;;5068951;28;20200;-84
2023/03/01 09:44:44;;;;;;;77.38;12.45;;;2.40;1.00;;;;;;5068136;28;20167;-84
2023/03/01 09:47:20;;;;;;;77.65;13.93;;;2.50;1.00;;;;;;5068742;28;20173;-84
2023/03/01 09:49:55;;;;;;;77.32;13.50;;;2.40;1.00;;;;;;5069761;28;20145;-84
2023/03/01 09:52:26;;;;;;;79.97;12.70;;;2.60;1.00;;;;;;5068820;28;20263;-84
2023/03/01 09:54:55;;;;;;;84.50;15.13;;;2.80;1.00;;;;;;5069226;28;20191;-84
2023/03/01 09:57:36;;;;;;;80.72;13.35;;;2.80;1.00;;;;;;5068506;28;20175;-84
2023/03/01 10:00:23;;;;;;;78.57;13.98;;;3.00;1.00;;;;;;5070409;28;20180;-83
2023/03/01 10:03:00;;;;;;;80.18;13.15;;;3.00;1.00;;;;;;5070558;28;20204;-84
2023/03/01 10:05:38;;;;;;;78.78;13.25;;;3.10;1.00;;;;;;5070149;28;20153;-84
2023/03/01 10:08:25;;;;;;;80.05;12.30;;;3.10;1.00;;;;;;5070497;28;20151;-84
2023/03/01 10:10:52;;;;;;;81.47;13.73;;;3.20;1.00;;;;;;5070578;28;20145;-84
2023/03/01 10:13:35;;;;;;;80.97;12.93;;;3.20;1.00;;;;;;5070004;28;20622;-85
2023/03/01 10:16:22;;;;;;;79.78;14.55;;;3.40;1.00;;;;;;5071204;28;20157;-84
2023/03/01 10:18:55;;;;;;;79.15;13.43;;;3.50;1.00;;;;;;5070368;28;20160;-86
2023/03/01 10:21:21;;;;;;;76.45;12.38;;;3.60;1.00;;;;;;5070557;28;20590;-84
2023/03/01 10:23:51;;;;;;;79.27;12.10;;;3.70;1.00;;;;;;5070497;28;20164;-84
2023/03/01 10:26:22;;;;;;;78.78;13.25;;;3.70;1.00;;;;;;5070790;28;20398;-84
2023/03/01 10:29:10;;;;;;;81.72;12.55;;;3.80;1.00;;;;;;5068971;28;20189;-84
2023/03/01 10:31:43;;;;;;;74.18;12.15;;;3.80;1.00;;;;;;5068416;28;20196;-84
2023/03/01 10:34:22;;;;;;;76.65;12.13;;;3.90;1.00;;;;;;5069669;28;20243;-84
2023/03/01 10:36:55;;;;;;;77.57;11.88;;;3.90;1.00;;;;;;5069989;28;20145;-84
2023/03/01 10:39:24;;;;;;;78.90;13.57;;;4.10;1.00;;;;;;5070181;28;20153;-84
2023/03/01 10:42:11;;;;;;;75.30;12.27;;;4.20;1.00;;;;;;5069303;28;20202;-84
2023/03/01 10:44:42;;;;;;;79.82;12.63;;;4.20;1.00;;;;;;5068541;28;20180;-84
2023/03/01 10:47:21;;;;;;;78.80;12.18;;;4.30;1.00;;;;;;5070118;28;20152;-84
2023/03/01 10:50:17;;;;;;;77.75;12.57;;;4.30;1.00;;;;;;5069868;28;20159;-84
2023/03/01 10:52:59;;;;;;;83.07;13.00;;;4.50;1.00;;;;;;5070519;28;20208;-84
2023/03/01 10:55:31;;;;;;;77.65;14.23;;;4.60;1.00;;;;;;5068142;28;20149;-84
2023/03/01 10:58:17;;;;;;;81.03;13.60;;;4.50;1.00;;;;;;5066569;28;20167;-84
2023/03/01 11:01:26;;;;;;;80.20;13.52;;;4.50;1.00;;;;;;5067717;28;20179;-84
2023/03/01 11:04:07;;;;;;;84.20;13.02;;;4.60;1.00;;;;;;5065958;28;20248;-84
2023/03/01 11:06:38;;;;;;;76.90;12.95;;;4.70;1.00;;;;;;5067345;28;20183;-84
2023/03/01 11:09:48;;;;;;;77.75;13.88;;;4.80;1.00;;;;;;5069234;28;20172;-84
2023/03/01 11:12:16;;;;;;;79.50;13.68;;;5.10;1.00;;;;;;5068572;28;20184;-84
2023/03/01 11:14:58;;;;;;;80.45;13.32;;;5.30;1.00;;;;;;5068910;28;20161;-84
2023/03/01 11:17:33;;;;;;;79.15;13.30;;;5.30;1.00;;;;;;5068661;28;20199;-84
2023/03/01 11:20:14;;;;;;;78.13;11.65;;;5.50;1.00;;;;;;5068846;28;20168;-84
2023/03/01 11:23:14;;;;;;;85.78;12.80;;;5.60;1.00;;;;;;5061653;28;20210;-82
2023/03/01 11:26:01;;;;;;;79.55;10.93;;;6.00;1.00;;;;;;5021974;28;20173;-82
2023/03/01 11:28:36;;;;;;;76.57;12.00;;;6.30;1.00;;;;;;5058067;28;20651;-83
2023/03/01 11:31:08;;;;;;;78.40;12.80;;;6.00;1.00;;;;;;5142190;22;20586;-85
2023/03/01 11:33:37;;;;;;;78.57;12.90;;;5.70;1.00;;;;;;5066112;28;20147;-85
2023/03/01 11:36:26;;;;;;;75.18;11.90;;;5.90;1.00;;;;;;5066286;28;20536;-86
2023/03/01 11:38:53;;;;;;;79.15;12.65;;;6.10;1.00;;;;;;5067020;28;20149;-85
2023/03/01 11:41:27;;;;;;;79.20;14.23;;;6.30;1.00;;;;;;5139089;22;20228;-86
2023/03/01 11:44:22;;;;;;;77.30;11.80;;;6.40;1.00;;;;;;5067521;28;20654;-86
2023/03/01 11:47:06;;;;;;;75.22;11.10;;;6.30;1.00;;;;;;5065548;28;20232;-86
2023/03/01 11:49:38;;;;;;;78.40;12.55;;;6.10;1.00;;;;;;5065554;28;20559;-86
2023/03/01 11:52:19;;;;;;;73.95;11.27;;;6.00;1.00;;;;;;5063649;28;20184;-86
2023/03/01 11:54:53;;;;;;;79.00;12.95;;;6.10;1.00;;;;;;5064726;28;20148;-86
2023/03/01 11:57:28;;;;;;;76.75;13.02;;;6.10;1.00;;;;;;5063057;28;20207;-86
2023/03/01 12:00:06;;;;;;;76.75;13.13;;;6.00;1.00;;;;;;5063530;28;20163;-85
2023/03/01 12:03:25;;;;;;;79.43;11.93;;;6.00;1.00;;;;;;5063341;28;20222;-86
2023/03/01 12:06:24;;;;;;;75.93;12.70;;;6.20;1.00;;;;;;5060288;28;20178;-86
2023/03/01 12:09:09;;;;;;;76.80;12.43;;;6.90;1.00;;;;;;5062684;28;20157;-86
2023/03/01 12:11:44;;;;;;;76.63;13.30;;;7.00;1.00;;;;;;5063721;28;20655;-85
2023/03/01 12:14:28;;;;;;;76.20;11.82;;;7.10;1.00;;;;;;5062118;28;20170;-86
2023/03/01 12:17:38;;;;;;;77.78;11.75;;;7.20;1.00;;;;;;5062705;28;20302;-85
2023/03/01 12:20:18;;;;;;;75.47;10.35;;;7.40;1.00;;;;;;5038065;28;20180;-86
2023/03/01 12:22:59;;;;;;;76.82;12.27;;;7.60;1.00;;;;;;5065983;28;20203;-86
2023/03/01 12:25:43;;;;;;;75.72;11.85;;;7.60;1.00;;;;;;5067181;28;20239;-85
2023/03/01 12:28:09;;;;;;;75.97;12.35;;;7.80;1.00;;;;;;5066304;28;20153;-86
2023/03/01 12:30:53;;;;;;;77.63;12.17;;;7.50;1.00;;;;;;5065160;28;20207;-87
2023/03/01 12:33:42;;;;;;;74.20;11.02;;;7.40;1.00;;;;;;5065045;28;20184;-87
2023/03/01 12:36:43;;;;;;;76.57;12.77;;;7.60;1.00;;;;;;5064942;28;20149;-86
2023/03/01 12:39:11;;;;;;;79.10;12.57;;;7.70;1.00;;;;;;5065321;28;20167;-86
2023/03/01 12:41:37;;;;;;;76.43;12.50;;;7.80;1.00;;;;;;5065195;28;20228;-87
2023/03/01 12:44:24;;;;;;;78.20;10.70;;;7.60;1.00;;;;;;5065572;28;20278;-86
2023/03/01 12:47:11;;;;;;;74.55;12.00;;;7.70;1.00;;;;;;5065289;28;20160;-86
2023/03/01 12:49:45;;;;;;;80.60;13.07;;;7.50;1.00;;;;;;5063937;28;20153;-87
2023/03/01 12:52:22;;;;;;;75.55;12.05;;;7.50;1.00;;;;;;5063710;28;20195;-86
2023/03/01 12:54:51;;;;;;;73.22;10.70;;;7.50;1.00;;;;;;5062494;28;20164;-85
2023/03/01 12:57:36;;;;;;;74.68;11.02;;;7.40;1.00;;;;;;5064057;28;20203;-85